createdAt,value
2023-04-02T00:05:19.688Z,9.68
2023-04-02T00:10:59.337Z,9.69
2023-04-02T00:16:23.913Z,9.71
2023-04-02T00:21:46.838Z,9.68
2023-04-02T00:27:13.354Z,9.55
2023-04-02T00:32:36.644Z,9.43
2023-04-02T00:37:58.322Z,9.44
2023-04-02T00:43:21.106Z,9.42
2023-04-02T00:48:58.344Z,9.40
2023-04-02T00:54:22.073Z,9.37
2023-04-02T00:59:53.280Z,9.37
2023-04-02T01:05:15.162Z,9.32
2023-04-02T01:11:02.528Z,9.38
2023-04-02T01:16:31.156Z,9.48
2023-04-02T01:22:07.051Z,9.38
2023-04-02T01:27:33.958Z,9.25
2023-04-02T01:32:56.823Z,9.17
2023-04-02T01:38:25.931Z,9.11
2023-04-02T01:44:06.636Z,9.06
2023-04-02T01:49:28.766Z,9.13
2023-04-02T01:54:51.796Z,9.23
2023-04-02T02:00:15.153Z,9.26
2023-04-02T02:05:38.868Z,9.20
2023-04-02T02:11:01.954Z,9.10
2023-04-02T02:16:24.367Z,9.05
2023-04-02T02:21:50.734Z,8.95
2023-04-02T02:27:22.248Z,8.93
2023-04-02T02:33:02.099Z,8.91
2023-04-02T02:38:49.655Z,8.86
2023-04-02T02:44:21.558Z,8.81
2023-04-02T02:49:46.657Z,8.79
2023-04-02T02:55:13.654Z,8.78
2023-04-02T03:00:43.861Z,8.68
2023-04-02T03:06:09.303Z,8.54
2023-04-02T03:11:39.047Z,8.48
2023-04-02T03:17:06.705Z,8.44
2023-04-02T03:22:35.476Z,8.38
2023-04-02T03:28:07.605Z,8.32
2023-04-02T03:33:38.902Z,8.24
2023-04-02T03:39:25.807Z,8.26
2023-04-02T03:44:59.891Z,8.29
2023-04-02T03:50:29.398Z,8.30
2023-04-02T03:55:53.073Z,8.33
2023-04-02T04:01:20.726Z,8.31
2023-04-02T04:06:44.859Z,8.28
2023-04-02T04:12:27.017Z,8.32
2023-04-02T04:18:06.082Z,8.34
2023-04-02T04:23:41.141Z,8.32
2023-04-02T04:29:38.237Z,8.29
2023-04-02T04:35:24.189Z,8.34
2023-04-02T04:40:52.480Z,8.39
2023-04-02T04:46:41.554Z,8.46
2023-04-02T04:52:21.262Z,8.42
2023-04-02T04:57:43.393Z,8.28
2023-04-02T05:03:22.580Z,8.12
2023-04-02T05:08:48.332Z,7.95
2023-04-02T05:14:45.475Z,7.87
2023-04-02T05:20:16.473Z,7.76
2023-04-02T05:25:51.813Z,7.61
2023-04-02T05:31:21.614Z,7.42
2023-04-02T05:36:46.698Z,7.32
2023-04-02T05:42:16.473Z,7.37
2023-04-02T05:47:47.265Z,7.20
2023-04-02T05:53:37.858Z,7.03
2023-04-02T05:59:16.345Z,6.79
2023-04-02T06:04:47.510Z,6.64
2023-04-02T06:10:18.374Z,6.54
2023-04-02T06:15:40.196Z,6.39
2023-04-02T06:21:12.716Z,6.30
2023-04-02T06:26:43.527Z,6.12
2023-04-02T06:32:12.390Z,6.05
2023-04-02T06:37:39.726Z,5.74
2023-04-02T06:43:27.476Z,5.60
2023-04-02T06:49:01.517Z,5.62
2023-04-02T06:54:23.245Z,5.50
2023-04-02T06:59:49.651Z,5.44
2023-04-02T07:05:14.890Z,5.51
2023-04-02T07:10:41.576Z,5.57
2023-04-02T07:16:03.748Z,5.70
2023-04-02T07:21:29.145Z,5.82
2023-04-02T07:26:51.678Z,5.83
2023-04-02T07:32:13.918Z,5.77
2023-04-02T07:37:38.447Z,5.76
2023-04-02T07:43:00.877Z,5.67
2023-04-02T07:48:24.114Z,5.58
2023-04-02T07:53:50.464Z,5.39
2023-04-02T07:59:12.086Z,5.21
2023-04-02T08:04:34.201Z,5.22
2023-04-02T08:09:56.174Z,5.28
2023-04-02T08:15:18.877Z,5.28
2023-04-02T08:20:40.920Z,5.26
2023-04-02T08:26:05.760Z,5.27
2023-04-02T08:31:27.806Z,5.36
2023-04-02T08:36:49.808Z,5.31
2023-04-02T08:42:50.174Z,5.25
2023-04-02T08:48:12.976Z,5.16
2023-04-02T08:53:38.064Z,5.18
2023-04-02T08:59:04.201Z,5.22
2023-04-02T09:04:27.250Z,5.19
2023-04-02T09:09:50.075Z,5.11
2023-04-02T09:15:14.323Z,5.06
2023-04-02T09:20:36.523Z,5.00
2023-04-02T09:26:04.033Z,5.02
2023-04-02T09:31:36.782Z,4.99
2023-04-02T09:37:25.598Z,4.91
2023-04-02T09:42:47.193Z,4.85
2023-04-02T09:48:25.532Z,4.75
2023-04-02T09:53:52.227Z,4.82
2023-04-02T09:59:14.160Z,4.93
2023-04-02T10:04:44.821Z,4.92
2023-04-02T10:10:26.284Z,4.93
2023-04-02T10:16:01.214Z,4.96
2023-04-02T10:21:28.133Z,4.98
2023-04-02T10:27:11.865Z,5.09
2023-04-02T10:32:38.057Z,5.09
2023-04-02T10:38:21.774Z,5.08
2023-04-02T10:43:48.538Z,5.13
2023-04-02T10:49:34.809Z,5.26
2023-04-02T10:55:01.190Z,5.22
2023-04-02T11:00:29.157Z,5.24
2023-04-02T11:05:53.491Z,5.23
2023-04-02T11:11:23.365Z,5.28
2023-04-02T11:16:45.739Z,5.36
2023-04-02T11:22:18.747Z,5.34
2023-04-02T11:27:40.772Z,5.29
2023-04-02T11:33:34.031Z,5.23
2023-04-02T11:39:07.355Z,5.14
2023-04-02T11:44:37.110Z,5.18
2023-04-02T11:50:01.640Z,5.17
2023-04-02T11:55:30.859Z,5.18
2023-04-02T12:01:35.817Z,5.33
2023-04-02T12:07:22.326Z,5.37
2023-04-02T12:12:44.519Z,5.36
2023-04-02T12:18:23.776Z,5.30
2023-04-02T12:23:47.629Z,5.31
2023-04-02T12:29:19.544Z,5.27
2023-04-02T12:34:45.777Z,5.18
2023-04-02T12:40:17.448Z,5.20
2023-04-02T12:45:38.880Z,5.27
2023-04-02T12:51:02.020Z,5.39
2023-04-02T12:56:24.291Z,5.31
2023-04-02T13:02:01.008Z,5.24
2023-04-02T13:07:25.966Z,5.29
2023-04-02T13:12:47.897Z,5.30
2023-04-02T13:18:12.344Z,5.30
2023-04-02T13:23:37.240Z,5.33
2023-04-02T13:29:02.118Z,5.27
2023-04-02T13:34:24.245Z,5.28
2023-04-02T13:39:45.806Z,5.18
2023-04-02T13:45:19.113Z,5.12
2023-04-02T13:50:41.582Z,5.08
2023-04-02T13:56:03.954Z,5.03
2023-04-02T14:01:26.117Z,4.99
2023-04-02T14:07:03.058Z,5.05
2023-04-02T14:12:35.064Z,5.08
2023-04-02T14:18:31.629Z,5.13
2023-04-02T14:24:16.740Z,5.01
2023-04-02T14:29:54.428Z,5.14
2023-04-02T14:35:36.064Z,5.18
2023-04-02T14:41:11.662Z,5.12
2023-04-02T14:46:37.716Z,4.97
2023-04-02T14:52:04.677Z,4.98
2023-04-02T14:57:31.069Z,5.03
2023-04-02T15:03:04.166Z,5.01
2023-04-02T15:08:41.188Z,5.02
2023-04-02T15:14:25.697Z,5.05
2023-04-02T15:19:47.634Z,5.04
2023-04-02T15:25:34.049Z,5.02
2023-04-02T15:30:58.967Z,5.06
2023-04-02T15:36:38.871Z,5.08
2023-04-02T15:42:13.747Z,5.10
2023-04-02T15:48:11.137Z,5.11
2023-04-02T15:54:01.714Z,5.07
2023-04-02T15:59:48.646Z,5.12
2023-04-02T16:05:50.431Z,5.14
2023-04-02T16:11:14.553Z,5.11
2023-04-02T16:16:37.190Z,5.14
2023-04-02T16:22:06.317Z,5.05
2023-04-02T16:27:42.542Z,4.96
2023-04-02T16:33:23.040Z,4.84
2023-04-02T16:38:57.412Z,4.67
2023-04-02T16:44:31.974Z,4.63
2023-04-02T16:50:27.710Z,4.60
2023-04-02T16:55:58.873Z,4.50
2023-04-02T17:01:33.321Z,4.45
2023-04-02T17:07:15.911Z,4.36
2023-04-02T17:12:46.614Z,4.30
2023-04-02T17:18:20.939Z,4.26
2023-04-02T17:24:17.473Z,4.23
2023-04-02T17:29:42.482Z,4.18
2023-04-02T17:35:22.317Z,4.12
2023-04-02T17:41:07.144Z,4.18
2023-04-02T17:46:39.223Z,4.29
2023-04-02T17:52:42.635Z,4.25
2023-04-02T17:58:26.619Z,4.25
2023-04-02T18:03:57.385Z,4.24
2023-04-02T18:09:30.953Z,4.27
2023-04-02T18:15:24.905Z,4.29
2023-04-02T18:21:16.928Z,4.25
2023-04-02T18:26:53.829Z,4.18
2023-04-02T18:32:33.746Z,4.15
2023-04-02T18:38:04.758Z,4.10
2023-04-02T18:43:33.946Z,4.11
2023-04-02T18:48:59.667Z,4.13
2023-04-02T18:54:35.718Z,4.12
2023-04-02T19:00:02.227Z,4.14
2023-04-02T19:05:40.834Z,4.14
2023-04-02T19:11:22.275Z,4.08
2023-04-02T19:17:05.273Z,4.13
2023-04-02T19:23:22.392Z,4.13
2023-04-02T19:29:12.655Z,4.07
2023-04-02T19:34:42.924Z,4.02
2023-04-02T19:40:24.686Z,4.07
2023-04-02T19:45:48.495Z,4.01
2023-04-02T19:51:10.245Z,3.93
2023-04-02T19:56:32.876Z,3.92
2023-04-02T20:01:54.303Z,3.94
2023-04-02T20:07:16.034Z,3.90
2023-04-02T20:12:37.847Z,3.80
2023-04-02T20:18:00.755Z,3.83
2023-04-02T20:23:22.826Z,3.82
2023-04-02T20:28:44.758Z,3.63
2023-04-02T20:34:08.590Z,3.51
2023-04-02T20:39:30.522Z,3.53
2023-04-02T20:44:52.558Z,3.49
2023-04-02T20:50:14.281Z,3.51
2023-04-02T20:55:36.414Z,3.48
2023-04-02T21:01:16.364Z,3.43
2023-04-02T21:06:39.425Z,3.41
2023-04-02T21:12:01.480Z,3.41
2023-04-02T21:17:23.635Z,3.34
2023-04-02T21:22:44.967Z,3.40
2023-04-02T21:28:07.357Z,3.36
2023-04-02T21:33:29.588Z,3.35
2023-04-02T21:38:53.719Z,3.34
2023-04-02T21:44:16.262Z,3.29
2023-04-02T21:49:38.181Z,3.19
2023-04-02T21:55:00.310Z,3.04
2023-04-02T22:00:22.946Z,3.02
2023-04-02T22:05:44.873Z,2.98
2023-04-02T22:11:18.957Z,2.87
2023-04-02T22:16:41.717Z,2.81
2023-04-02T22:22:03.807Z,2.67
2023-04-02T22:27:25.439Z,2.61
2023-04-02T22:32:47.341Z,2.48
2023-04-02T22:38:09.392Z,2.41
2023-04-02T22:43:32.400Z,2.46
2023-04-02T22:48:55.877Z,2.45
2023-04-02T22:54:17.692Z,2.39
2023-04-02T22:59:39.815Z,2.33
2023-04-02T23:05:01.900Z,2.33
2023-04-02T23:10:23.886Z,2.35
2023-04-02T23:15:51.041Z,2.42
2023-04-02T23:21:13.056Z,2.45
2023-04-02T23:26:34.587Z,2.53
2023-04-02T23:31:56.698Z,2.52
2023-04-02T23:37:18.665Z,2.57
2023-04-02T23:42:43.572Z,2.62
2023-04-02T23:48:05.734Z,2.67
2023-04-02T23:53:27.543Z,2.78
2023-04-02T23:58:50.480Z,2.85
